sensor_id;sensor_type;location;lat;lon;timestamp;P1;durP1;ratioP1;P2;durP2;ratioP2
16512;SDS011;8369;48.030;11.598;2024-02-26T00:01:40;3.17;;;2.80;;
16512;SDS011;8369;48.030;11.598;2024-02-26T00:04:08;3.87;;;3.00;;
16512;SDS011;8369;48.030;11.598;2024-02-26T00:06:34;4.17;;;3.17;;
16512;SDS011;8369;48.030;11.598;2024-02-26T00:09:00;3.83;;;2.90;;
16512;SDS011;8369;48.030;11.598;2024-02-26T00:11:27;3.50;;;2.70;;
16512;SDS011;8369;48.030;11.598;2024-02-26T00:13:53;3.30;;;2.90;;
16512;SDS011;8369;48.030;11.598;2024-02-26T00:16:19;4.13;;;2.87;;
16512;SDS011;8369;48.030;11.598;2024-02-26T00:18:44;4.13;;;2.70;;
16512;SDS011;8369;48.030;11.598;2024-02-26T00:21:11;3.27;;;2.67;;
16512;SDS011;8369;48.030;11.598;2024-02-26T00:23:37;3.17;;;2.83;;
16512;SDS011;8369;48.030;11.598;2024-02-26T00:26:05;5.23;;;3.03;;
16512;SDS011;8369;48.030;11.598;2024-02-26T00:28:31;2.97;;;2.60;;
16512;SDS011;8369;48.030;11.598;2024-02-26T00:30:56;2.40;;;1.97;;
16512;SDS011;8369;48.030;11.598;2024-02-26T00:33:22;2.53;;;2.03;;
16512;SDS011;8369;48.030;11.598;2024-02-26T00:35:48;2.20;;;2.00;;
16512;SDS011;8369;48.030;11.598;2024-02-26T00:38:17;3.23;;;2.27;;
16512;SDS011;8369;48.030;11.598;2024-02-26T00:40:43;2.83;;;2.10;;
16512;SDS011;8369;48.030;11.598;2024-02-26T00:43:08;3.00;;;2.30;;
16512;SDS011;8369;48.030;11.598;2024-02-26T00:45:34;2.50;;;1.83;;
16512;SDS011;8369;48.030;11.598;2024-02-26T00:48:00;2.03;;;1.83;;
16512;SDS011;8369;48.030;11.598;2024-02-26T00:50:29;2.73;;;1.70;;
16512;SDS011;8369;48.030;11.598;2024-02-26T00:52:58;4.87;;;2.20;;
16512;SDS011;8369;48.030;11.598;2024-02-26T00:55:25;5.53;;;2.13;;
16512;SDS011;8369;48.030;11.598;2024-02-26T00:57:51;2.17;;;1.90;;
16512;SDS011;8369;48.030;11.598;2024-02-26T01:00:16;2.63;;;2.10;;
16512;SDS011;8369;48.030;11.598;2024-02-26T01:02:42;2.53;;;2.33;;
16512;SDS011;8369;48.030;11.598;2024-02-26T01:05:11;3.13;;;2.40;;
16512;SDS011;8369;48.030;11.598;2024-02-26T01:07:37;2.93;;;2.30;;
16512;SDS011;8369;48.030;11.598;2024-02-26T01:10:04;2.90;;;2.27;;
16512;SDS011;8369;48.030;11.598;2024-02-26T01:12:33;2.07;;;1.83;;
16512;SDS011;8369;48.030;11.598;2024-02-26T01:15:00;2.13;;;1.93;;
16512;SDS011;8369;48.030;11.598;2024-02-26T01:17:28;2.23;;;1.77;;
16512;SDS011;8369;48.030;11.598;2024-02-26T01:19:53;2.87;;;2.00;;
16512;SDS011;8369;48.030;11.598;2024-02-26T01:22:19;2.20;;;1.90;;
16512;SDS011;8369;48.030;11.598;2024-02-26T01:24:45;2.00;;;1.80;;
16512;SDS011;8369;48.030;11.598;2024-02-26T01:27:11;3.17;;;2.50;;
16512;SDS011;8369;48.030;11.598;2024-02-26T01:29:37;2.97;;;2.30;;
16512;SDS011;8369;48.030;11.598;2024-02-26T01:32:03;2.63;;;2.03;;
16512;SDS011;8369;48.030;11.598;2024-02-26T01:34:30;2.43;;;2.00;;
16512;SDS011;8369;48.030;11.598;2024-02-26T01:36:56;3.33;;;2.00;;
16512;SDS011;8369;48.030;11.598;2024-02-26T01:39:22;2.53;;;1.87;;
16512;SDS011;8369;48.030;11.598;2024-02-26T01:41:48;3.63;;;1.73;;
16512;SDS011;8369;48.030;11.598;2024-02-26T01:44:14;2.93;;;2.10;;
16512;SDS011;8369;48.030;11.598;2024-02-26T01:46:39;2.90;;;2.30;;
16512;SDS011;8369;48.030;11.598;2024-02-26T01:49:05;3.07;;;2.23;;
16512;SDS011;8369;48.030;11.598;2024-02-26T01:51:32;2.33;;;1.87;;
16512;SDS011;8369;48.030;11.598;2024-02-26T01:53:59;3.27;;;2.17;;
16512;SDS011;8369;48.030;11.598;2024-02-26T01:56:28;3.23;;;2.40;;
16512;SDS011;8369;48.030;11.598;2024-02-26T01:58:59;2.50;;;2.10;;
16512;SDS011;8369;48.030;11.598;2024-02-26T02:01:26;5.70;;;2.17;;
16512;SDS011;8369;48.030;11.598;2024-02-26T02:03:55;4.57;;;2.30;;
16512;SDS011;8369;48.030;11.598;2024-02-26T02:06:23;4.77;;;2.57;;
16512;SDS011;8369;48.030;11.598;2024-02-26T02:08:49;4.37;;;3.03;;
16512;SDS011;8369;48.030;11.598;2024-02-26T02:11:15;4.17;;;3.07;;
16512;SDS011;8369;48.030;11.598;2024-02-26T02:13:41;3.50;;;2.70;;
16512;SDS011;8369;48.030;11.598;2024-02-26T02:16:07;3.73;;;2.73;;
16512;SDS011;8369;48.030;11.598;2024-02-26T02:18:33;3.40;;;2.77;;
16512;SDS011;8369;48.030;11.598;2024-02-26T02:21:02;4.13;;;3.20;;
16512;SDS011;8369;48.030;11.598;2024-02-26T02:23:28;4.40;;;3.10;;
16512;SDS011;8369;48.030;11.598;2024-02-26T02:25:54;3.40;;;2.77;;
16512;SDS011;8369;48.030;11.598;2024-02-26T02:28:24;4.33;;;2.60;;
16512;SDS011;8369;48.030;11.598;2024-02-26T02:30:51;3.17;;;2.60;;
16512;SDS011;8369;48.030;11.598;2024-02-26T02:33:17;5.53;;;2.77;;
16512;SDS011;8369;48.030;11.598;2024-02-26T02:35:52;4.60;;;2.77;;
16512;SDS011;8369;48.030;11.598;2024-02-26T02:38:20;4.37;;;2.57;;
16512;SDS011;8369;48.030;11.598;2024-02-26T02:44:27;8.40;;;4.50;;
16512;SDS011;8369;48.030;11.598;2024-02-26T02:46:53;7.27;;;3.53;;
16512;SDS011;8369;48.030;11.598;2024-02-26T02:49:19;4.93;;;3.33;;
16512;SDS011;8369;48.030;11.598;2024-02-26T02:51:44;6.70;;;3.70;;
16512;SDS011;8369;48.030;11.598;2024-02-26T02:54:10;5.47;;;3.13;;
16512;SDS011;8369;48.030;11.598;2024-02-26T02:56:36;3.83;;;2.30;;
16512;SDS011;8369;48.030;11.598;2024-02-26T02:59:01;4.23;;;2.60;;
16512;SDS011;8369;48.030;11.598;2024-02-26T03:01:27;4.20;;;2.53;;
16512;SDS011;8369;48.030;11.598;2024-02-26T03:03:53;4.40;;;2.43;;
16512;SDS011;8369;48.030;11.598;2024-02-26T03:06:21;3.30;;;2.50;;
16512;SDS011;8369;48.030;11.598;2024-02-26T03:08:48;3.77;;;2.03;;
16512;SDS011;8369;48.030;11.598;2024-02-26T03:11:14;3.77;;;2.17;;
16512;SDS011;8369;48.030;11.598;2024-02-26T03:13:42;4.00;;;1.90;;
16512;SDS011;8369;48.030;11.598;2024-02-26T03:16:08;3.57;;;2.10;;
16512;SDS011;8369;48.030;11.598;2024-02-26T03:18:34;3.00;;;2.70;;
16512;SDS011;8369;48.030;11.598;2024-02-26T03:21:02;4.70;;;3.00;;
16512;SDS011;8369;48.030;11.598;2024-02-26T03:23:28;5.67;;;3.33;;
16512;SDS011;8369;48.030;11.598;2024-02-26T03:25:55;1.90;;;1.63;;
16512;SDS011;8369;48.030;11.598;2024-02-26T03:28:21;2.10;;;1.67;;
16512;SDS011;8369;48.030;11.598;2024-02-26T03:30:47;1.37;;;1.27;;
16512;SDS011;8369;48.030;11.598;2024-02-26T03:33:14;2.70;;;1.33;;
16512;SDS011;8369;48.030;11.598;2024-02-26T03:35:39;1.53;;;1.40;;
16512;SDS011;8369;48.030;11.598;2024-02-26T03:38:05;1.40;;;1.20;;
16512;SDS011;8369;48.030;11.598;2024-02-26T03:40:31;1.40;;;1.30;;
16512;SDS011;8369;48.030;11.598;2024-02-26T03:42:57;2.83;;;1.47;;
16512;SDS011;8369;48.030;11.598;2024-02-26T03:45:23;1.40;;;1.30;;
16512;SDS011;8369;48.030;11.598;2024-02-26T03:47:50;1.80;;;1.37;;
16512;SDS011;8369;48.030;11.598;2024-02-26T03:50:16;2.43;;;1.40;;
16512;SDS011;8369;48.030;11.598;2024-02-26T03:52:42;1.80;;;1.57;;
16512;SDS011;8369;48.030;11.598;2024-02-26T03:55:07;1.83;;;1.33;;
16512;SDS011;8369;48.030;11.598;2024-02-26T03:57:34;2.27;;;1.73;;
16512;SDS011;8369;48.030;11.598;2024-02-26T04:00:00;2.43;;;1.90;;
16512;SDS011;8369;48.030;11.598;2024-02-26T04:02:26;2.30;;;2.00;;
16512;SDS011;8369;48.030;11.598;2024-02-26T04:04:52;2.40;;;1.70;;
16512;SDS011;8369;48.030;11.598;2024-02-26T04:07:17;1.53;;;1.30;;
16512;SDS011;8369;48.030;11.598;2024-02-26T04:12:09;2.43;;;1.53;;
16512;SDS011;8369;48.030;11.598;2024-02-26T04:14:38;1.67;;;1.40;;
16512;SDS011;8369;48.030;11.598;2024-02-26T04:17:06;2.50;;;1.70;;
16512;SDS011;8369;48.030;11.598;2024-02-26T04:19:32;3.43;;;1.50;;
16512;SDS011;8369;48.030;11.598;2024-02-26T04:22:01;6.77;;;3.37;;
16512;SDS011;8369;48.030;11.598;2024-02-26T04:24:28;8.60;;;3.57;;
16512;SDS011;8369;48.030;11.598;2024-02-26T04:26:53;7.43;;;4.03;;
16512;SDS011;8369;48.030;11.598;2024-02-26T04:29:19;6.40;;;3.50;;
16512;SDS011;8369;48.030;11.598;2024-02-26T04:31:45;5.07;;;2.73;;
16512;SDS011;8369;48.030;11.598;2024-02-26T04:34:11;2.67;;;1.90;;
16512;SDS011;8369;48.030;11.598;2024-02-26T04:36:37;3.37;;;1.80;;
16512;SDS011;8369;48.030;11.598;2024-02-26T04:39:03;2.23;;;1.23;;
16512;SDS011;8369;48.030;11.598;2024-02-26T04:41:29;2.73;;;1.40;;
16512;SDS011;8369;48.030;11.598;2024-02-26T04:43:55;1.10;;;1.00;;
16512;SDS011;8369;48.030;11.598;2024-02-26T04:46:20;1.60;;;1.27;;
16512;SDS011;8369;48.030;11.598;2024-02-26T04:48:49;2.27;;;1.10;;
16512;SDS011;8369;48.030;11.598;2024-02-26T04:51:15;1.80;;;1.30;;
16512;SDS011;8369;48.030;11.598;2024-02-26T04:53:41;0.80;;;0.80;;
16512;SDS011;8369;48.030;11.598;2024-02-26T04:56:06;1.50;;;1.10;;
16512;SDS011;8369;48.030;11.598;2024-02-26T04:58:32;1.00;;;0.93;;
16512;SDS011;8369;48.030;11.598;2024-02-26T05:00:58;1.10;;;1.00;;
16512;SDS011;8369;48.030;11.598;2024-02-26T05:03:23;1.27;;;1.10;;
16512;SDS011;8369;48.030;11.598;2024-02-26T05:05:49;1.80;;;1.30;;
16512;SDS011;8369;48.030;11.598;2024-02-26T05:08:18;1.30;;;1.13;;
16512;SDS011;8369;48.030;11.598;2024-02-26T05:10:45;1.40;;;1.10;;
16512;SDS011;8369;48.030;11.598;2024-02-26T05:13:10;2.43;;;1.00;;
16512;SDS011;8369;48.030;11.598;2024-02-26T05:15:36;1.10;;;1.00;;
16512;SDS011;8369;48.030;11.598;2024-02-26T05:18:02;4.63;;;1.90;;
16512;SDS011;8369;48.030;11.598;2024-02-26T05:20:28;7.60;;;2.83;;
16512;SDS011;8369;48.030;11.598;2024-02-26T05:22:54;4.47;;;2.50;;
16512;SDS011;8369;48.030;11.598;2024-02-26T05:25:20;3.67;;;2.77;;
16512;SDS011;8369;48.030;11.598;2024-02-26T05:27:45;6.97;;;4.30;;
16512;SDS011;8369;48.030;11.598;2024-02-26T05:30:11;4.47;;;3.27;;
16512;SDS011;8369;48.030;11.598;2024-02-26T05:32:40;2.90;;;2.50;;
16512;SDS011;8369;48.030;11.598;2024-02-26T05:35:06;2.70;;;2.10;;
16512;SDS011;8369;48.030;11.598;2024-02-26T05:37:32;2.33;;;1.90;;
16512;SDS011;8369;48.030;11.598;2024-02-26T05:39:57;3.40;;;2.40;;
16512;SDS011;8369;48.030;11.598;2024-02-26T05:42:24;4.90;;;2.50;;
16512;SDS011;8369;48.030;11.598;2024-02-26T05:44:50;3.53;;;2.40;;
16512;SDS011;8369;48.030;11.598;2024-02-26T05:47:16;3.10;;;2.60;;
16512;SDS011;8369;48.030;11.598;2024-02-26T05:49:45;4.63;;;2.00;;
16512;SDS011;8369;48.030;11.598;2024-02-26T05:52:12;3.70;;;2.20;;
16512;SDS011;8369;48.030;11.598;2024-02-26T05:54:37;2.50;;;1.70;;
16512;SDS011;8369;48.030;11.598;2024-02-26T05:57:03;1.73;;;1.63;;
16512;SDS011;8369;48.030;11.598;2024-02-26T05:59:29;1.93;;;1.73;;
16512;SDS011;8369;48.030;11.598;2024-02-26T06:01:55;2.57;;;1.93;;
16512;SDS011;8369;48.030;11.598;2024-02-26T06:04:20;1.80;;;1.40;;
16512;SDS011;8369;48.030;11.598;2024-02-26T06:06:46;2.50;;;1.67;;
16512;SDS011;8369;48.030;11.598;2024-02-26T06:09:12;1.83;;;1.50;;
16512;SDS011;8369;48.030;11.598;2024-02-26T06:11:38;3.03;;;1.37;;
16512;SDS011;8369;48.030;11.598;2024-02-26T06:14:04;3.53;;;1.60;;
16512;SDS011;8369;48.030;11.598;2024-02-26T06:16:30;2.07;;;1.50;;
16512;SDS011;8369;48.030;11.598;2024-02-26T06:18:56;3.83;;;2.80;;
16512;SDS011;8369;48.030;11.598;2024-02-26T06:21:22;6.53;;;2.90;;
16512;SDS011;8369;48.030;11.598;2024-02-26T06:23:47;2.83;;;2.43;;
16512;SDS011;8369;48.030;11.598;2024-02-26T06:26:14;7.17;;;3.80;;
16512;SDS011;8369;48.030;11.598;2024-02-26T06:28:40;4.17;;;3.30;;
16512;SDS011;8369;48.030;11.598;2024-02-26T06:31:05;4.07;;;3.43;;
16512;SDS011;8369;48.030;11.598;2024-02-26T06:33:31;6.67;;;3.70;;
16512;SDS011;8369;48.030;11.598;2024-02-26T06:35:57;5.13;;;3.67;;
16512;SDS011;8369;48.030;11.598;2024-02-26T06:38:23;5.23;;;3.60;;
16512;SDS011;8369;48.030;11.598;2024-02-26T06:40:49;7.97;;;3.10;;
16512;SDS011;8369;48.030;11.598;2024-02-26T06:43:15;3.87;;;2.90;;
16512;SDS011;8369;48.030;11.598;2024-02-26T06:45:40;5.87;;;2.77;;
16512;SDS011;8369;48.030;11.598;2024-02-26T06:48:06;4.90;;;2.70;;
16512;SDS011;8369;48.030;11.598;2024-02-26T06:50:32;10.03;;;2.57;;
16512;SDS011;8369;48.030;11.598;2024-02-26T06:52:58;11.07;;;2.90;;
16512;SDS011;8369;48.030;11.598;2024-02-26T06:55:23;11.17;;;3.13;;
16512;SDS011;8369;48.030;11.598;2024-02-26T06:57:49;8.33;;;3.20;;
16512;SDS011;8369;48.030;11.598;2024-02-26T07:00:15;4.77;;;3.43;;
16512;SDS011;8369;48.030;11.598;2024-02-26T07:02:42;5.87;;;3.83;;
16512;SDS011;8369;48.030;11.598;2024-02-26T07:05:08;4.07;;;3.40;;
16512;SDS011;8369;48.030;11.598;2024-02-26T07:07:34;8.83;;;3.33;;
16512;SDS011;8369;48.030;11.598;2024-02-26T07:10:00;9.60;;;3.23;;
16512;SDS011;8369;48.030;11.598;2024-02-26T07:12:28;5.40;;;3.20;;
16512;SDS011;8369;48.030;11.598;2024-02-26T07:14:55;7.27;;;3.40;;
16512;SDS011;8369;48.030;11.598;2024-02-26T07:17:20;13.93;;;3.40;;
16512;SDS011;8369;48.030;11.598;2024-02-26T07:19:46;14.67;;;3.60;;
16512;SDS011;8369;48.030;11.598;2024-02-26T07:22:12;9.73;;;3.03;;
16512;SDS011;8369;48.030;11.598;2024-02-26T07:24:38;14.53;;;3.70;;
16512;SDS011;8369;48.030;11.598;2024-02-26T07:27:04;8.40;;;3.87;;
16512;SDS011;8369;48.030;11.598;2024-02-26T07:29:30;8.37;;;3.00;;
16512;SDS011;8369;48.030;11.598;2024-02-26T07:31:56;10.70;;;3.87;;
16512;SDS011;8369;48.030;11.598;2024-02-26T07:34:23;7.67;;;3.37;;
16512;SDS011;8369;48.030;11.598;2024-02-26T07:36:52;16.27;;;4.00;;
16512;SDS011;8369;48.030;11.598;2024-02-26T07:39:19;10.70;;;3.57;;
16512;SDS011;8369;48.030;11.598;2024-02-26T07:41:44;14.97;;;6.27;;
16512;SDS011;8369;48.030;11.598;2024-02-26T07:44:13;14.53;;;6.73;;
16512;SDS011;8369;48.030;11.598;2024-02-26T07:46:39;14.73;;;5.53;;
16512;SDS011;8369;48.030;11.598;2024-02-26T07:49:07;12.73;;;5.47;;
16512;SDS011;8369;48.030;11.598;2024-02-26T07:51:33;10.23;;;4.50;;
16512;SDS011;8369;48.030;11.598;2024-02-26T07:54:00;9.83;;;4.90;;
16512;SDS011;8369;48.030;11.598;2024-02-26T07:56:26;11.37;;;5.10;;
16512;SDS011;8369;48.030;11.598;2024-02-26T07:58:52;7.60;;;4.67;;
16512;SDS011;8369;48.030;11.598;2024-02-26T08:01:20;9.53;;;4.97;;
16512;SDS011;8369;48.030;11.598;2024-02-26T08:03:46;9.17;;;4.50;;
16512;SDS011;8369;48.030;11.598;2024-02-26T08:06:12;9.67;;;4.50;;
16512;SDS011;8369;48.030;11.598;2024-02-26T08:08:37;17.03;;;4.60;;
16512;SDS011;8369;48.030;11.598;2024-02-26T08:11:03;7.67;;;4.20;;
16512;SDS011;8369;48.030;11.598;2024-02-26T08:13:29;8.30;;;4.73;;
16512;SDS011;8369;48.030;11.598;2024-02-26T08:15:55;10.80;;;4.50;;
16512;SDS011;8369;48.030;11.598;2024-02-26T08:18:20;7.53;;;4.27;;
16512;SDS011;8369;48.030;11.598;2024-02-26T08:20:46;9.13;;;4.40;;
16512;SDS011;8369;48.030;11.598;2024-02-26T08:23:14;7.70;;;4.30;;
16512;SDS011;8369;48.030;11.598;2024-02-26T08:25:39;8.70;;;4.03;;
16512;SDS011;8369;48.030;11.598;2024-02-26T08:28:05;6.57;;;3.90;;
16512;SDS011;8369;48.030;11.598;2024-02-26T08:30:31;13.10;;;4.53;;
16512;SDS011;8369;48.030;11.598;2024-02-26T08:32:57;13.87;;;4.63;;
16512;SDS011;8369;48.030;11.598;2024-02-26T08:35:23;6.13;;;3.53;;
16512;SDS011;8369;48.030;11.598;2024-02-26T08:37:49;7.07;;;3.93;;
16512;SDS011;8369;48.030;11.598;2024-02-26T08:40:14;5.70;;;3.20;;
16512;SDS011;8369;48.030;11.598;2024-02-26T08:42:40;4.10;;;2.70;;
16512;SDS011;8369;48.030;11.598;2024-02-26T08:45:07;6.37;;;2.93;;
16512;SDS011;8369;48.030;11.598;2024-02-26T08:47:34;6.60;;;3.37;;
16512;SDS011;8369;48.030;11.598;2024-02-26T08:50:00;7.73;;;3.00;;
16512;SDS011;8369;48.030;11.598;2024-02-26T08:52:26;13.03;;;3.00;;
16512;SDS011;8369;48.030;11.598;2024-02-26T08:54:52;7.97;;;3.03;;
16512;SDS011;8369;48.030;11.598;2024-02-26T08:57:17;5.30;;;2.97;;
16512;SDS011;8369;48.030;11.598;2024-02-26T08:59:43;5.70;;;2.63;;
16512;SDS011;8369;48.030;11.598;2024-02-26T09:02:09;4.43;;;2.30;;
16512;SDS011;8369;48.030;11.598;2024-02-26T09:04:35;5.20;;;2.37;;
16512;SDS011;8369;48.030;11.598;2024-02-26T09:07:01;3.70;;;2.50;;
16512;SDS011;8369;48.030;11.598;2024-02-26T09:09:27;4.13;;;1.97;;
16512;SDS011;8369;48.030;11.598;2024-02-26T09:11:53;2.47;;;2.00;;
16512;SDS011;8369;48.030;11.598;2024-02-26T09:14:20;1.93;;;1.73;;
16512;SDS011;8369;48.030;11.598;2024-02-26T09:16:46;4.17;;;2.00;;
16512;SDS011;8369;48.030;11.598;2024-02-26T09:19:15;3.63;;;1.80;;
16512;SDS011;8369;48.030;11.598;2024-02-26T09:21:44;3.37;;;1.53;;
16512;SDS011;8369;48.030;11.598;2024-02-26T09:24:10;2.50;;;1.70;;
16512;SDS011;8369;48.030;11.598;2024-02-26T09:26:37;5.40;;;1.70;;
16512;SDS011;8369;48.030;11.598;2024-02-26T09:29:03;1.70;;;1.60;;
16512;SDS011;8369;48.030;11.598;2024-02-26T09:31:29;3.53;;;1.80;;
16512;SDS011;8369;48.030;11.598;2024-02-26T09:33:55;2.40;;;1.90;;
16512;SDS011;8369;48.030;11.598;2024-02-26T09:36:24;2.93;;;1.90;;
16512;SDS011;8369;48.030;11.598;2024-02-26T09:38:49;2.83;;;1.80;;
16512;SDS011;8369;48.030;11.598;2024-02-26T09:41:15;2.87;;;1.90;;
16512;SDS011;8369;48.030;11.598;2024-02-26T09:43:45;4.23;;;2.03;;
16512;SDS011;8369;48.030;11.598;2024-02-26T09:46:13;8.13;;;2.40;;
16512;SDS011;8369;48.030;11.598;2024-02-26T09:48:40;4.17;;;2.17;;
16512;SDS011;8369;48.030;11.598;2024-02-26T09:51:10;4.33;;;2.33;;
16512;SDS011;8369;48.030;11.598;2024-02-26T09:53:36;3.97;;;3.20;;
16512;SDS011;8369;48.030;11.598;2024-02-26T09:56:07;3.67;;;1.73;;
16512;SDS011;8369;48.030;11.598;2024-02-26T09:58:33;2.77;;;2.07;;
16512;SDS011;8369;48.030;11.598;2024-02-26T10:01:00;3.07;;;2.20;;
16512;SDS011;8369;48.030;11.598;2024-02-26T10:03:30;5.20;;;1.97;;
16512;SDS011;8369;48.030;11.598;2024-02-26T10:06:00;2.50;;;1.60;;
16512;SDS011;8369;48.030;11.598;2024-02-26T10:08:29;2.50;;;1.67;;
16512;SDS011;8369;48.030;11.598;2024-02-26T10:10:56;2.50;;;1.90;;
16512;SDS011;8369;48.030;11.598;2024-02-26T10:13:22;2.33;;;1.70;;
16512;SDS011;8369;48.030;11.598;2024-02-26T10:15:48;3.63;;;1.93;;
16512;SDS011;8369;48.030;11.598;2024-02-26T10:18:14;2.03;;;1.70;;
16512;SDS011;8369;48.030;11.598;2024-02-26T10:20:40;1.97;;;1.30;;
16512;SDS011;8369;48.030;11.598;2024-02-26T10:23:06;3.03;;;1.90;;
16512;SDS011;8369;48.030;11.598;2024-02-26T10:25:31;1.67;;;1.30;;
16512;SDS011;8369;48.030;11.598;2024-02-26T10:28:00;2.50;;;1.50;;
16512;SDS011;8369;48.030;11.598;2024-02-26T10:30:29;2.87;;;1.60;;
16512;SDS011;8369;48.030;11.598;2024-02-26T10:32:56;4.37;;;1.57;;
16512;SDS011;8369;48.030;11.598;2024-02-26T10:35:22;2.87;;;2.03;;
16512;SDS011;8369;48.030;11.598;2024-02-26T10:37:49;3.33;;;2.00;;
16512;SDS011;8369;48.030;11.598;2024-02-26T10:40:15;1.70;;;1.53;;
16512;SDS011;8369;48.030;11.598;2024-02-26T10:42:41;3.30;;;1.60;;
16512;SDS011;8369;48.030;11.598;2024-02-26T10:45:08;2.93;;;1.90;;
16512;SDS011;8369;48.030;11.598;2024-02-26T10:47:35;1.50;;;1.37;;
16512;SDS011;8369;48.030;11.598;2024-02-26T10:50:01;2.30;;;1.40;;
16512;SDS011;8369;48.030;11.598;2024-02-26T10:52:30;3.00;;;1.57;;
16512;SDS011;8369;48.030;11.598;2024-02-26T10:55:00;2.17;;;1.93;;
16512;SDS011;8369;48.030;11.598;2024-02-26T10:57:29;4.37;;;1.60;;
16512;SDS011;8369;48.030;11.598;2024-02-26T11:00:02;2.23;;;1.90;;
16512;SDS011;8369;48.030;11.598;2024-02-26T11:02:33;3.47;;;2.10;;
16512;SDS011;8369;48.030;11.598;2024-02-26T11:05:02;3.20;;;2.00;;
16512;SDS011;8369;48.030;11.598;2024-02-26T11:07:30;1.80;;;1.33;;
16512;SDS011;8369;48.030;11.598;2024-02-26T11:09:59;1.50;;;1.40;;
16512;SDS011;8369;48.030;11.598;2024-02-26T11:12:25;1.70;;;1.20;;
16512;SDS011;8369;48.030;11.598;2024-02-26T11:14:54;1.40;;;1.30;;
16512;SDS011;8369;48.030;11.598;2024-02-26T11:17:22;3.33;;;1.13;;
16512;SDS011;8369;48.030;11.598;2024-02-26T11:19:55;1.23;;;1.13;;
16512;SDS011;8369;48.030;11.598;2024-02-26T11:22:21;1.47;;;1.00;;
16512;SDS011;8369;48.030;11.598;2024-02-26T11:24:47;1.60;;;1.40;;
16512;SDS011;8369;48.030;11.598;2024-02-26T11:27:14;2.93;;;1.27;;
16512;SDS011;8369;48.030;11.598;2024-02-26T11:29:44;1.97;;;1.20;;
16512;SDS011;8369;48.030;11.598;2024-02-26T11:32:16;1.50;;;1.37;;
16512;SDS011;8369;48.030;11.598;2024-02-26T11:34:42;2.00;;;1.47;;
16512;SDS011;8369;48.030;11.598;2024-02-26T11:37:12;1.43;;;1.30;;
16512;SDS011;8369;48.030;11.598;2024-02-26T11:39:40;2.33;;;1.33;;
16512;SDS011;8369;48.030;11.598;2024-02-26T11:42:06;1.10;;;1.00;;
16512;SDS011;8369;48.030;11.598;2024-02-26T11:44:41;3.80;;;3.17;;
16512;SDS011;8369;48.030;11.598;2024-02-26T11:47:13;2.33;;;2.00;;
16512;SDS011;8369;48.030;11.598;2024-02-26T11:49:43;1.80;;;1.30;;
16512;SDS011;8369;48.030;11.598;2024-02-26T11:52:09;3.37;;;2.73;;
16512;SDS011;8369;48.030;11.598;2024-02-26T11:54:39;1.47;;;1.30;;
16512;SDS011;8369;48.030;11.598;2024-02-26T11:59:47;1.37;;;1.27;;
16512;SDS011;8369;48.030;11.598;2024-02-26T12:02:37;2.30;;;1.30;;
16512;SDS011;8369;48.030;11.598;2024-02-26T12:05:19;1.40;;;1.20;;
16512;SDS011;8369;48.030;11.598;2024-02-26T12:10:27;1.40;;;1.20;;
16512;SDS011;8369;48.030;11.598;2024-02-26T12:13:00;1.33;;;1.17;;
16512;SDS011;8369;48.030;11.598;2024-02-26T12:15:33;1.30;;;1.20;;
16512;SDS011;8369;48.030;11.598;2024-02-26T12:18:02;2.10;;;1.50;;
16512;SDS011;8369;48.030;11.598;2024-02-26T12:20:29;3.43;;;1.40;;
16512;SDS011;8369;48.030;11.598;2024-02-26T12:22:55;2.67;;;1.60;;
16512;SDS011;8369;48.030;11.598;2024-02-26T12:25:23;3.57;;;1.50;;
16512;SDS011;8369;48.030;11.598;2024-02-26T12:27:51;1.53;;;1.43;;
16512;SDS011;8369;48.030;11.598;2024-02-26T12:30:17;1.50;;;1.20;;
16512;SDS011;8369;48.030;11.598;2024-02-26T12:32:44;1.40;;;1.30;;
16512;SDS011;8369;48.030;11.598;2024-02-26T12:35:10;1.33;;;1.23;;
16512;SDS011;8369;48.030;11.598;2024-02-26T12:37:36;1.27;;;1.00;;
16512;SDS011;8369;48.030;11.598;2024-02-26T12:40:04;1.37;;;1.13;;
16512;SDS011;8369;48.030;11.598;2024-02-26T12:42:32;1.40;;;1.00;;
16512;SDS011;8369;48.030;11.598;2024-02-26T12:45:04;1.80;;;1.33;;
16512;SDS011;8369;48.030;11.598;2024-02-26T12:47:37;1.30;;;1.10;;
16512;SDS011;8369;48.030;11.598;2024-02-26T12:50:04;1.30;;;1.20;;
16512;SDS011;8369;48.030;11.598;2024-02-26T12:52:31;1.50;;;1.10;;
16512;SDS011;8369;48.030;11.598;2024-02-26T12:54:58;1.33;;;1.23;;
16512;SDS011;8369;48.030;11.598;2024-02-26T12:57:25;1.33;;;1.20;;
16512;SDS011;8369;48.030;11.598;2024-02-26T12:59:52;2.10;;;1.83;;
16512;SDS011;8369;48.030;11.598;2024-02-26T13:02:17;2.33;;;1.10;;
16512;SDS011;8369;48.030;11.598;2024-02-26T13:04:43;2.40;;;1.40;;
16512;SDS011;8369;48.030;11.598;2024-02-26T13:07:09;1.37;;;1.10;;
16512;SDS011;8369;48.030;11.598;2024-02-26T13:09:35;2.47;;;1.20;;
16512;SDS011;8369;48.030;11.598;2024-02-26T13:12:03;0.90;;;0.90;;
16512;SDS011;8369;48.030;11.598;2024-02-26T13:14:30;0.97;;;0.93;;
16512;SDS011;8369;48.030;11.598;2024-02-26T13:16:58;0.90;;;0.90;;
16512;SDS011;8369;48.030;11.598;2024-02-26T13:19:25;1.33;;;1.00;;
16512;SDS011;8369;48.030;11.598;2024-02-26T13:21:51;1.17;;;1.07;;
16512;SDS011;8369;48.030;11.598;2024-02-26T13:24:20;0.83;;;0.80;;
16512;SDS011;8369;48.030;11.598;2024-02-26T13:26:47;5.20;;;0.90;;
16512;SDS011;8369;48.030;11.598;2024-02-26T13:29:19;1.40;;;0.73;;
16512;SDS011;8369;48.030;11.598;2024-02-26T13:31:44;0.77;;;0.57;;
16512;SDS011;8369;48.030;11.598;2024-02-26T13:34:11;0.73;;;0.73;;
16512;SDS011;8369;48.030;11.598;2024-02-26T13:36:53;2.00;;;0.70;;
16512;SDS011;8369;48.030;11.598;2024-02-26T13:39:26;1.20;;;1.10;;
16512;SDS011;8369;48.030;11.598;2024-02-26T13:41:53;1.60;;;1.13;;
16512;SDS011;8369;48.030;11.598;2024-02-26T13:44:19;1.80;;;1.47;;
16512;SDS011;8369;48.030;11.598;2024-02-26T13:46:46;1.77;;;1.30;;
16512;SDS011;8369;48.030;11.598;2024-02-26T13:49:13;1.10;;;1.00;;
16512;SDS011;8369;48.030;11.598;2024-02-26T13:51:38;2.83;;;1.20;;
16512;SDS011;8369;48.030;11.598;2024-02-26T13:54:04;5.27;;;1.60;;
16512;SDS011;8369;48.030;11.598;2024-02-26T13:56:31;4.87;;;1.50;;
16512;SDS011;8369;48.030;11.598;2024-02-26T13:58:57;3.07;;;2.00;;
16512;SDS011;8369;48.030;11.598;2024-02-26T14:01:23;2.90;;;2.27;;
16512;SDS011;8369;48.030;11.598;2024-02-26T14:03:49;2.40;;;2.00;;
16512;SDS011;8369;48.030;11.598;2024-02-26T14:06:16;2.50;;;2.00;;
16512;SDS011;8369;48.030;11.598;2024-02-26T14:08:41;2.73;;;2.30;;
16512;SDS011;8369;48.030;11.598;2024-02-26T14:11:07;4.13;;;2.23;;
16512;SDS011;8369;48.030;11.598;2024-02-26T14:13:33;2.70;;;2.20;;
16512;SDS011;8369;48.030;11.598;2024-02-26T14:15:59;2.87;;;2.40;;
16512;SDS011;8369;48.030;11.598;2024-02-26T14:18:25;5.70;;;2.40;;
16512;SDS011;8369;48.030;11.598;2024-02-26T14:20:52;2.93;;;2.60;;
16512;SDS011;8369;48.030;11.598;2024-02-26T14:23:18;3.87;;;2.60;;
16512;SDS011;8369;48.030;11.598;2024-02-26T14:25:43;6.13;;;3.00;;
16512;SDS011;8369;48.030;11.598;2024-02-26T14:28:09;4.50;;;3.10;;
16512;SDS011;8369;48.030;11.598;2024-02-26T14:30:35;3.90;;;2.60;;
16512;SDS011;8369;48.030;11.598;2024-02-26T14:33:00;4.43;;;3.10;;
16512;SDS011;8369;48.030;11.598;2024-02-26T14:35:26;3.83;;;2.90;;
16512;SDS011;8369;48.030;11.598;2024-02-26T14:37:52;8.13;;;3.00;;
16512;SDS011;8369;48.030;11.598;2024-02-26T14:40:19;3.87;;;3.07;;
16512;SDS011;8369;48.030;11.598;2024-02-26T14:42:45;4.20;;;3.13;;
16512;SDS011;8369;48.030;11.598;2024-02-26T14:45:11;3.80;;;3.00;;
16512;SDS011;8369;48.030;11.598;2024-02-26T14:47:39;4.53;;;2.90;;
16512;SDS011;8369;48.030;11.598;2024-02-26T14:50:05;3.40;;;2.67;;
16512;SDS011;8369;48.030;11.598;2024-02-26T14:52:31;4.60;;;2.80;;
16512;SDS011;8369;48.030;11.598;2024-02-26T14:54:57;4.17;;;2.70;;
16512;SDS011;8369;48.030;11.598;2024-02-26T14:57:23;4.97;;;2.77;;